sensor_id;sensor_type;location;lat;lon;timestamp;pressure;altitude;pressure_sealevel;temperature;humidity
21547;BME280;41275;51.912;4.388;2023-03-15T00:02:25;101143.41;;;9.56;53.05
21547;BME280;41275;51.912;4.388;2023-03-15T00:07:46;101163.47;;;9.71;52.67
21547;BME280;41275;51.912;4.388;2023-03-15T00:13:08;101174.03;;;9.71;52.87
21547;BME280;41275;51.912;4.388;2023-03-15T00:18:30;101186.03;;;9.67;52.85
21547;BME280;41275;51.912;4.388;2023-03-15T00:23:51;101172.09;;;9.46;53.19
21547;BME280;41275;51.912;4.388;2023-03-15T00:29:12;101185.78;;;9.37;53.28
21547;BME280;41275;51.912;4.388;2023-03-15T00:34:34;101193.53;;;9.25;53.10
21547;BME280;41275;51.912;4.388;2023-03-15T00:39:55;101202.09;;;9.20;53.29
21547;BME280;41275;51.912;4.388;2023-03-15T00:45:20;101191.13;;;9.17;53.35
21547;BME280;41275;51.912;4.388;2023-03-15T00:50:41;101195.00;;;9.07;53.69
21547;BME280;41275;51.912;4.388;2023-03-15T00:56:23;101210.88;;;9.01;53.35
21547;BME280;41275;51.912;4.388;2023-03-15T01:01:45;101224.88;;;8.95;54.40
21547;BME280;41275;51.912;4.388;2023-03-15T01:07:06;101228.75;;;8.92;53.94
21547;BME280;41275;51.912;4.388;2023-03-15T01:12:28;101239.72;;;8.89;54.14
21547;BME280;41275;51.912;4.388;2023-03-15T01:17:49;101235.25;;;8.83;53.65
21547;BME280;41275;51.912;4.388;2023-03-15T01:23:10;101246.59;;;8.83;53.90
21547;BME280;41275;51.912;4.388;2023-03-15T01:28:32;101251.06;;;8.83;53.89
21547;BME280;41275;51.912;4.388;2023-03-15T01:33:53;101257.97;;;8.84;53.83
21547;BME280;41275;51.912;4.388;2023-03-15T01:39:15;101254.31;;;8.92;53.77
21547;BME280;41275;51.912;4.388;2023-03-15T01:44:51;101272.38;;;8.95;54.15
21547;BME280;41275;51.912;4.388;2023-03-15T01:50:13;101273.38;;;9.07;54.51
21547;BME280;41275;51.912;4.388;2023-03-15T01:55:34;101278.69;;;9.00;53.99
21547;BME280;41275;51.912;4.388;2023-03-15T02:00:55;101288.22;;;9.15;53.94
21547;BME280;41275;51.912;4.388;2023-03-15T02:06:18;101289.63;;;9.17;54.02
21547;BME280;41275;51.912;4.388;2023-03-15T02:11:41;101293.69;;;9.26;54.04
21547;BME280;41275;51.912;4.388;2023-03-15T02:17:02;101291.25;;;9.25;54.50
21547;BME280;41275;51.912;4.388;2023-03-15T02:22:52;101305.03;;;9.40;53.78
21547;BME280;41275;51.912;4.388;2023-03-15T02:28:17;101309.53;;;9.40;53.85
21547;BME280;41275;51.912;4.388;2023-03-15T02:33:50;101300.78;;;9.32;53.64
21547;BME280;41275;51.912;4.388;2023-03-15T02:39:17;101307.31;;;9.17;54.19
21547;BME280;41275;51.912;4.388;2023-03-15T02:44:41;101320.28;;;9.12;53.91
21547;BME280;41275;51.912;4.388;2023-03-15T02:50:03;101343.88;;;9.06;54.35
21547;BME280;41275;51.912;4.388;2023-03-15T02:55:25;101347.53;;;9.05;54.28
21547;BME280;41275;51.912;4.388;2023-03-15T03:00:46;101362.53;;;9.12;53.59
21547;BME280;41275;51.912;4.388;2023-03-15T03:06:08;101375.97;;;9.10;53.86
21547;BME280;41275;51.912;4.388;2023-03-15T03:11:29;101376.97;;;9.02;53.58
21547;BME280;41275;51.912;4.388;2023-03-15T03:16:51;101380.44;;;8.96;53.57
21547;BME280;41275;51.912;4.388;2023-03-15T03:22:12;101387.13;;;8.92;53.50
21547;BME280;41275;51.912;4.388;2023-03-15T03:27:34;101394.81;;;8.87;53.01
21547;BME280;41275;51.912;4.388;2023-03-15T03:32:56;101395.63;;;8.88;53.01
21547;BME280;41275;51.912;4.388;2023-03-15T03:38:17;101406.41;;;8.93;53.15
21547;BME280;41275;51.912;4.388;2023-03-15T03:43:39;101415.56;;;9.10;53.29
21547;BME280;41275;51.912;4.388;2023-03-15T03:49:00;101435.91;;;9.36;52.45
21547;BME280;41275;51.912;4.388;2023-03-15T03:54:22;101437.91;;;9.54;52.17
21547;BME280;41275;51.912;4.388;2023-03-15T03:59:43;101445.22;;;9.65;52.20
21547;BME280;41275;51.912;4.388;2023-03-15T04:05:04;101451.13;;;9.87;51.88
21547;BME280;41275;51.912;4.388;2023-03-15T04:10:25;101460.03;;;9.93;51.74
21547;BME280;41275;51.912;4.388;2023-03-15T04:15:47;101459.63;;;9.96;51.41
21547;BME280;41275;51.912;4.388;2023-03-15T04:21:08;101468.34;;;10.09;50.86
21547;BME280;41275;51.912;4.388;2023-03-15T04:26:30;101461.81;;;10.19;51.06
21547;BME280;41275;51.912;4.388;2023-03-15T04:31:51;101470.75;;;10.38;50.06
21547;BME280;41275;51.912;4.388;2023-03-15T04:37:13;101482.50;;;10.48;49.75
21547;BME280;41275;51.912;4.388;2023-03-15T04:42:34;101497.16;;;10.51;50.47
21547;BME280;41275;51.912;4.388;2023-03-15T04:47:55;101503.66;;;10.48;49.97
21547;BME280;41275;51.912;4.388;2023-03-15T04:53:16;101527.75;;;10.00;50.06
21547;BME280;41275;51.912;4.388;2023-03-15T04:58:37;101533.44;;;9.97;50.83
21547;BME280;41275;51.912;4.388;2023-03-15T05:03:59;101534.88;;;10.00;51.00
21547;BME280;41275;51.912;4.388;2023-03-15T05:09:20;101536.28;;;10.09;50.83
21547;BME280;41275;51.912;4.388;2023-03-15T05:14:41;101538.13;;;10.08;50.54
21547;BME280;41275;51.912;4.388;2023-03-15T05:20:03;101534.09;;;9.79;50.82
21547;BME280;41275;51.912;4.388;2023-03-15T05:25:31;101537.28;;;9.42;51.19
21547;BME280;41275;51.912;4.388;2023-03-15T05:30:53;101561.44;;;9.25;51.76
21547;BME280;41275;51.912;4.388;2023-03-15T05:36:15;101566.69;;;9.12;51.88
21547;BME280;41275;51.912;4.388;2023-03-15T05:41:37;101564.00;;;8.99;52.40
21547;BME280;41275;51.912;4.388;2023-03-15T05:46:58;101572.72;;;8.93;52.15
21547;BME280;41275;51.912;4.388;2023-03-15T05:52:22;101575.09;;;8.81;52.52
21547;BME280;41275;51.912;4.388;2023-03-15T05:57:43;101584.84;;;8.80;52.97
21547;BME280;41275;51.912;4.388;2023-03-15T06:03:04;101597.63;;;8.83;53.18
21547;BME280;41275;51.912;4.388;2023-03-15T06:08:25;101618.56;;;8.85;53.09
21547;BME280;41275;51.912;4.388;2023-03-15T06:13:47;101618.38;;;8.87;53.14
21547;BME280;41275;51.912;4.388;2023-03-15T06:19:08;101643.75;;;8.88;53.42
21547;BME280;41275;51.912;4.388;2023-03-15T06:24:29;101630.38;;;8.96;53.47
21547;BME280;41275;51.912;4.388;2023-03-15T06:29:50;101642.59;;;8.97;53.42
21547;BME280;41275;51.912;4.388;2023-03-15T06:35:11;101651.50;;;8.96;53.61
21547;BME280;41275;51.912;4.388;2023-03-15T06:40:33;101655.00;;;9.03;53.56
21547;BME280;41275;51.912;4.388;2023-03-15T06:45:54;101669.28;;;9.15;53.51
21547;BME280;41275;51.912;4.388;2023-03-15T06:51:16;101681.31;;;9.24;54.11
21547;BME280;41275;51.912;4.388;2023-03-15T06:56:37;101690.69;;;9.33;53.94
21547;BME280;41275;51.912;4.388;2023-03-15T07:01:59;101692.56;;;9.40;53.87
21547;BME280;41275;51.912;4.388;2023-03-15T07:07:20;101698.66;;;9.47;53.67
21547;BME280;41275;51.912;4.388;2023-03-15T07:12:41;101715.78;;;9.57;53.60
21547;BME280;41275;51.912;4.388;2023-03-15T07:18:02;101704.44;;;9.70;54.12
21547;BME280;41275;51.912;4.388;2023-03-15T07:23:24;101719.94;;;9.80;53.78
21547;BME280;41275;51.912;4.388;2023-03-15T07:28:45;101735.22;;;9.91;53.86
21547;BME280;41275;51.912;4.388;2023-03-15T07:34:06;101730.16;;;10.09;53.67
21547;BME280;41275;51.912;4.388;2023-03-15T07:39:27;101731.22;;;10.22;53.50
21547;BME280;41275;51.912;4.388;2023-03-15T07:44:52;101752.22;;;10.43;52.87
21547;BME280;41275;51.912;4.388;2023-03-15T07:50:13;101768.91;;;11.10;52.57
21547;BME280;41275;51.912;4.388;2023-03-15T07:55:35;101755.38;;;12.28;50.37
21547;BME280;41275;51.912;4.388;2023-03-15T08:00:57;101767.81;;;11.96;49.85
21547;BME280;41275;51.912;4.388;2023-03-15T08:06:18;101791.38;;;11.66;49.17
21547;BME280;41275;51.912;4.388;2023-03-15T08:11:39;101790.59;;;11.59;48.72
21547;BME280;41275;51.912;4.388;2023-03-15T08:17:00;101793.00;;;11.67;48.00
21547;BME280;41275;51.912;4.388;2023-03-15T08:22:21;101807.53;;;11.58;47.20
21547;BME280;41275;51.912;4.388;2023-03-15T08:27:44;101800.19;;;11.60;46.97
21547;BME280;41275;51.912;4.388;2023-03-15T08:33:06;101812.34;;;11.74;46.50
21547;BME280;41275;51.912;4.388;2023-03-15T08:38:27;101806.88;;;11.75;46.14
21547;BME280;41275;51.912;4.388;2023-03-15T08:43:48;101809.66;;;11.94;46.07
21547;BME280;41275;51.912;4.388;2023-03-15T08:49:10;101814.06;;;12.13;45.98
21547;BME280;41275;51.912;4.388;2023-03-15T08:54:31;101815.25;;;12.49;44.97
21547;BME280;41275;51.912;4.388;2023-03-15T08:59:52;101819.88;;;12.60;44.86
21547;BME280;41275;51.912;4.388;2023-03-15T09:05:14;101827.59;;;12.68;44.53
21547;BME280;41275;51.912;4.388;2023-03-15T09:10:36;101817.91;;;12.81;43.73
21547;BME280;41275;51.912;4.388;2023-03-15T09:15:57;101812.63;;;12.99;43.22
21547;BME280;41275;51.912;4.388;2023-03-15T09:21:18;101809.28;;;13.10;42.48
21547;BME280;41275;51.912;4.388;2023-03-15T09:26:39;101797.06;;;13.27;42.06
21547;BME280;41275;51.912;4.388;2023-03-15T09:32:01;101811.03;;;13.41;42.29
21547;BME280;41275;51.912;4.388;2023-03-15T09:37:22;101806.81;;;13.34;41.53
21547;BME280;41275;51.912;4.388;2023-03-15T09:48:37;101806.13;;;13.75;41.21
21547;BME280;41275;51.912;4.388;2023-03-15T09:54:15;101809.78;;;13.81;40.87
21547;BME280;41275;51.912;4.388;2023-03-15T09:59:40;101813.88;;;13.95;40.25
21547;BME280;41275;51.912;4.388;2023-03-15T10:05:07;101810.78;;;13.98;39.84
21547;BME280;41275;51.912;4.388;2023-03-15T10:10:33;101821.47;;;14.10;39.51
21547;BME280;41275;51.912;4.388;2023-03-15T10:21:53;101828.81;;;14.26;36.13
21547;BME280;41275;51.912;4.388;2023-03-15T10:27:25;101841.66;;;14.47;35.62
21547;BME280;41275;51.912;4.388;2023-03-15T10:33:13;101851.31;;;14.60;34.52
21547;BME280;41275;51.912;4.388;2023-03-15T10:38:35;101866.53;;;14.71;34.40
21547;BME280;41275;51.912;4.388;2023-03-15T10:44:03;101860.38;;;14.71;33.51
21547;BME280;41275;51.912;4.388;2023-03-15T10:49:35;101868.63;;;14.93;33.00
21547;BME280;41275;51.912;4.388;2023-03-15T10:54:59;101875.38;;;15.07;33.79
21547;BME280;41275;51.912;4.388;2023-03-15T11:00:33;101882.69;;;15.12;32.83
21547;BME280;41275;51.912;4.388;2023-03-15T11:05:57;101898.69;;;15.35;33.42
21547;BME280;41275;51.912;4.388;2023-03-15T11:11:19;101901.47;;;15.40;32.43
21547;BME280;41275;51.912;4.388;2023-03-15T11:16:45;101900.09;;;15.38;32.67
21547;BME280;41275;51.912;4.388;2023-03-15T11:22:11;101889.97;;;15.63;32.85
21547;BME280;41275;51.912;4.388;2023-03-15T11:27:33;101878.41;;;15.69;32.90
21547;BME280;41275;51.912;4.388;2023-03-15T11:32:57;101884.88;;;15.85;32.87
21547;BME280;41275;51.912;4.388;2023-03-15T11:38:29;101889.56;;;16.07;32.54
21547;BME280;41275;51.912;4.388;2023-03-15T11:44:24;101886.06;;;15.66;31.76
21547;BME280;41275;51.912;4.388;2023-03-15T11:49:50;101888.59;;;15.96;31.46
21547;BME280;41275;51.912;4.388;2023-03-15T11:55:18;101886.81;;;16.02;31.16
21547;BME280;41275;51.912;4.388;2023-03-15T12:00:49;101888.09;;;15.99;30.68
21547;BME280;41275;51.912;4.388;2023-03-15T12:11:39;101882.88;;;16.33;31.07
21547;BME280;41275;51.912;4.388;2023-03-15T12:22:50;101897.50;;;16.30;29.73
21547;BME280;41275;51.912;4.388;2023-03-15T12:28:20;101901.47;;;16.56;28.99
21547;BME280;41275;51.912;4.388;2023-03-15T12:33:53;101888.84;;;17.91;28.59
21547;BME280;41275;51.912;4.388;2023-03-15T12:44:38;101888.75;;;20.27;25.30
21547;BME280;41275;51.912;4.388;2023-03-15T12:50:48;101880.22;;;20.66;24.39
21547;BME280;41275;51.912;4.388;2023-03-15T13:01:37;101868.06;;;21.29;24.49
21547;BME280;41275;51.912;4.388;2023-03-15T13:07:22;101857.59;;;21.13;24.75
21547;BME280;41275;51.912;4.388;2023-03-15T13:12:52;101867.00;;;21.30;24.53
21547;BME280;41275;51.912;4.388;2023-03-15T13:18:17;101865.38;;;21.29;24.23
21547;BME280;41275;51.912;4.388;2023-03-15T13:23:49;101872.94;;;22.02;23.40
21547;BME280;41275;51.912;4.388;2023-03-15T13:29:16;101871.00;;;22.18;22.81
21547;BME280;41275;51.912;4.388;2023-03-15T13:34:40;101882.06;;;21.31;23.34
21547;BME280;41275;51.912;4.388;2023-03-15T13:40:10;101879.72;;;19.33;25.66
21547;BME280;41275;51.912;4.388;2023-03-15T13:45:36;101877.41;;;20.04;25.90
21547;BME280;41275;51.912;4.388;2023-03-15T13:51:03;101877.56;;;20.55;25.52
21547;BME280;41275;51.912;4.388;2023-03-15T13:56:33;101877.22;;;21.33;24.54
21547;BME280;41275;51.912;4.388;2023-03-15T14:01:55;101886.66;;;21.31;24.10
21547;BME280;41275;51.912;4.388;2023-03-15T14:07:33;101880.47;;;21.10;23.73
21547;BME280;41275;51.912;4.388;2023-03-15T14:12:57;101886.69;;;21.16;23.13
21547;BME280;41275;51.912;4.388;2023-03-15T14:18:30;101883.97;;;21.31;22.73
21547;BME280;41275;51.912;4.388;2023-03-15T14:23:52;101878.31;;;21.43;22.23
21547;BME280;41275;51.912;4.388;2023-03-15T14:29:21;101880.06;;;21.73;21.90
21547;BME280;41275;51.912;4.388;2023-03-15T14:34:46;101881.84;;;21.07;21.92
21547;BME280;41275;51.912;4.388;2023-03-15T14:40:27;101865.16;;;20.75;23.77
21547;BME280;41275;51.912;4.388;2023-03-15T14:45:48;101866.47;;;21.13;23.40
21547;BME280;41275;51.912;4.388;2023-03-15T14:51:15;101854.94;;;21.07;22.91
21547;BME280;41275;51.912;4.388;2023-03-15T14:56:37;101855.22;;;20.55;23.16
21547;BME280;41275;51.912;4.388;2023-03-15T15:01:59;101849.28;;;21.04;22.76
21547;BME280;41275;51.912;4.388;2023-03-15T15:07:22;101850.06;;;21.09;22.47
21547;BME280;41275;51.912;4.388;2023-03-15T15:12:43;101849.91;;;19.77;21.64
21547;BME280;41275;51.912;4.388;2023-03-15T15:18:05;101840.34;;;19.01;22.78
21547;BME280;41275;51.912;4.388;2023-03-15T15:23:28;101831.94;;;18.55;24.32
21547;BME280;41275;51.912;4.388;2023-03-15T15:28:51;101821.13;;;18.18;24.92
21547;BME280;41275;51.912;4.388;2023-03-15T15:34:13;101813.22;;;18.06;25.65
21547;BME280;41275;51.912;4.388;2023-03-15T15:39:34;101812.53;;;17.72;25.75
21547;BME280;41275;51.912;4.388;2023-03-15T15:44:56;101810.38;;;17.69;26.51
21547;BME280;41275;51.912;4.388;2023-03-15T15:50:18;101812.53;;;17.72;26.57
21547;BME280;41275;51.912;4.388;2023-03-15T15:55:40;101797.00;;;17.69;26.85
21547;BME280;41275;51.912;4.388;2023-03-15T16:01:01;101812.63;;;17.55;27.14
21547;BME280;41275;51.912;4.388;2023-03-15T16:06:22;101814.00;;;17.19;27.57
21547;BME280;41275;51.912;4.388;2023-03-15T16:11:43;101808.50;;;17.09;28.53
21547;BME280;41275;51.912;4.388;2023-03-15T16:17:10;101804.31;;;16.96;28.66
21547;BME280;41275;51.912;4.388;2023-03-15T16:22:32;101816.69;;;16.68;29.16
21547;BME280;41275;51.912;4.388;2023-03-15T16:27:54;101815.38;;;16.54;29.94
21547;BME280;41275;51.912;4.388;2023-03-15T16:33:20;101803.31;;;16.35;30.29
21547;BME280;41275;51.912;4.388;2023-03-15T16:38:41;101813.47;;;16.21;31.19
21547;BME280;41275;51.912;4.388;2023-03-15T16:44:10;101802.38;;;16.12;31.46
21547;BME280;41275;51.912;4.388;2023-03-15T16:49:32;101804.97;;;16.07;31.45
21547;BME280;41275;51.912;4.388;2023-03-15T16:54:53;101801.63;;;16.00;32.08
21547;BME280;41275;51.912;4.388;2023-03-15T17:00:14;101805.94;;;15.89;32.27
21547;BME280;41275;51.912;4.388;2023-03-15T17:05:41;101806.13;;;15.71;32.16
21547;BME280;41275;51.912;4.388;2023-03-15T17:11:04;101809.84;;;15.58;32.89
21547;BME280;41275;51.912;4.388;2023-03-15T17:16:25;101812.97;;;15.55;33.11
21547;BME280;41275;51.912;4.388;2023-03-15T17:21:46;101815.41;;;15.57;33.54
21547;BME280;41275;51.912;4.388;2023-03-15T17:27:18;101811.81;;;15.51;33.46
21547;BME280;41275;51.912;4.388;2023-03-15T17:32:42;101816.00;;;15.47;33.81
21547;BME280;41275;51.912;4.388;2023-03-15T17:38:04;101823.44;;;15.45;34.36
21547;BME280;41275;51.912;4.388;2023-03-15T17:43:26;101821.59;;;15.34;33.93
21547;BME280;41275;51.912;4.388;2023-03-15T17:48:48;101822.75;;;15.26;34.50
21547;BME280;41275;51.912;4.388;2023-03-15T17:54:14;101825.78;;;15.18;34.47
21547;BME280;41275;51.912;4.388;2023-03-15T17:59:36;101828.31;;;15.13;34.98
21547;BME280;41275;51.912;4.388;2023-03-15T18:04:57;101822.16;;;15.12;35.23
21547;BME280;41275;51.912;4.388;2023-03-15T18:10:19;101824.47;;;15.09;35.40
21547;BME280;41275;51.912;4.388;2023-03-15T18:15:46;101832.72;;;15.07;35.14
21547;BME280;41275;51.912;4.388;2023-03-15T18:21:11;101817.31;;;15.09;35.21
21547;BME280;41275;51.912;4.388;2023-03-15T18:26:33;101821.25;;;15.07;35.07
21547;BME280;41275;51.912;4.388;2023-03-15T18:31:54;101819.66;;;15.06;34.78
21547;BME280;41275;51.912;4.388;2023-03-15T18:37:15;101814.41;;;14.99;35.05
21547;BME280;41275;51.912;4.388;2023-03-15T18:42:37;101817.19;;;14.92;34.79
21547;BME280;41275;51.912;4.388;2023-03-15T18:47:58;101820.09;;;14.91;34.92
21547;BME280;41275;51.912;4.388;2023-03-15T18:53:20;101817.19;;;14.92;35.00
21547;BME280;41275;51.912;4.388;2023-03-15T18:58:41;101817.88;;;14.88;34.88
21547;BME280;41275;51.912;4.388;2023-03-15T19:04:02;101806.88;;;14.84;34.69
21547;BME280;41275;51.912;4.388;2023-03-15T19:09:23;101799.81;;;14.78;34.28
21547;BME280;41275;51.912;4.388;2023-03-15T19:14:44;101799.47;;;14.75;34.15
21547;BME280;41275;51.912;4.388;2023-03-15T19:20:07;101798.88;;;14.72;34.62
21547;BME280;41275;51.912;4.388;2023-03-15T19:25:31;101798.16;;;14.77;35.08
21547;BME280;41275;51.912;4.388;2023-03-15T19:30:53;101801.88;;;14.76;35.29
21547;BME280;41275;51.912;4.388;2023-03-15T19:36:14;101799.91;;;14.71;35.32
21547;BME280;41275;51.912;4.388;2023-03-15T19:41:35;101796.88;;;14.68;35.90
21547;BME280;41275;51.912;4.388;2023-03-15T19:46:56;101793.41;;;14.67;36.03
21547;BME280;41275;51.912;4.388;2023-03-15T19:52:17;101785.06;;;14.64;36.74
21547;BME280;41275;51.912;4.388;2023-03-15T19:57:59;101784.72;;;14.60;36.58
21547;BME280;41275;51.912;4.388;2023-03-15T20:03:20;101789.94;;;14.55;36.66
21547;BME280;41275;51.912;4.388;2023-03-15T20:08:41;101801.03;;;14.52;36.33
21547;BME280;41275;51.912;4.388;2023-03-15T20:14:02;101788.53;;;14.53;36.35
21547;BME280;41275;51.912;4.388;2023-03-15T20:19:24;101792.59;;;14.55;35.95
21547;BME280;41275;51.912;4.388;2023-03-15T20:24:45;101776.91;;;14.47;36.07
21547;BME280;41275;51.912;4.388;2023-03-15T20:30:08;101775.50;;;14.44;36.44
21547;BME280;41275;51.912;4.388;2023-03-15T20:35:29;101779.31;;;14.37;35.90
21547;BME280;41275;51.912;4.388;2023-03-15T20:40:55;101777.56;;;14.31;36.26
21547;BME280;41275;51.912;4.388;2023-03-15T20:46:16;101776.13;;;14.16;36.10
21547;BME280;41275;51.912;4.388;2023-03-15T20:51:39;101773.44;;;14.05;36.61
21547;BME280;41275;51.912;4.388;2023-03-15T20:57:00;101779.28;;;13.95;36.89
21547;BME280;41275;51.912;4.388;2023-03-15T21:02:21;101767.78;;;13.83;36.89
21547;BME280;41275;51.912;4.388;2023-03-15T21:07:43;101760.91;;;13.75;37.54
21547;BME280;41275;51.912;4.388;2023-03-15T21:13:05;101763.88;;;13.67;37.81
21547;BME280;41275;51.912;4.388;2023-03-15T21:18:32;101757.03;;;13.59;37.79
21547;BME280;41275;51.912;4.388;2023-03-15T21:23:55;101754.53;;;13.64;37.96
21547;BME280;41275;51.912;4.388;2023-03-15T21:29:17;101754.28;;;13.66;38.32
21547;BME280;41275;51.912;4.388;2023-03-15T21:34:38;101742.47;;;13.62;38.40
21547;BME280;41275;51.912;4.388;2023-03-15T21:39:59;101746.84;;;13.56;38.62
21547;BME280;41275;51.912;4.388;2023-03-15T21:45:20;101735.84;;;13.53;38.63
21547;BME280;41275;51.912;4.388;2023-03-15T21:50:43;101731.03;;;13.43;38.91
21547;BME280;41275;51.912;4.388;2023-03-15T21:56:04;101723.50;;;13.40;39.13
21547;BME280;41275;51.912;4.388;2023-03-15T22:01:26;101731.34;;;13.35;39.19
21547;BME280;41275;51.912;4.388;2023-03-15T22:06:47;101721.16;;;13.32;39.12
21547;BME280;41275;51.912;4.388;2023-03-15T22:12:08;101721.16;;;13.32;39.11
21547;BME280;41275;51.912;4.388;2023-03-15T22:17:29;101722.69;;;13.39;39.31
21547;BME280;41275;51.912;4.388;2023-03-15T22:22:51;101721.44;;;13.42;39.13
21547;BME280;41275;51.912;4.388;2023-03-15T22:28:12;101724.59;;;13.50;38.87
21547;BME280;41275;51.912;4.388;2023-03-15T22:33:33;101724.75;;;13.56;39.15
21547;BME280;41275;51.912;4.388;2023-03-15T22:38:55;101713.09;;;13.57;38.77
21547;BME280;41275;51.912;4.388;2023-03-15T22:44:18;101717.13;;;13.59;38.89
21547;BME280;41275;51.912;4.388;2023-03-15T22:49:39;101715.50;;;13.58;38.94
21547;BME280;41275;51.912;4.388;2023-03-15T22:55:00;101704.88;;;13.58;38.84
21547;BME280;41275;51.912;4.388;2023-03-15T23:00:24;101695.41;;;13.62;38.81
21547;BME280;41275;51.912;4.388;2023-03-15T23:05:45;101698.88;;;13.63;39.02
21547;BME280;41275;51.912;4.388;2023-03-15T23:11:07;101694.16;;;13.65;39.13
21547;BME280;41275;51.912;4.388;2023-03-15T23:16:28;101693.59;;;13.74;39.04
21547;BME280;41275;51.912;4.388;2023-03-15T23:21:49;101687.78;;;13.66;38.71
21547;BME280;41275;51.912;4.388;2023-03-15T23:27:10;101675.41;;;13.60;39.17
21547;BME280;41275;51.912;4.388;2023-03-15T23:32:31;101676.09;;;13.67;39.20
21547;BME280;41275;51.912;4.388;2023-03-15T23:37:56;101674.25;;;13.67;39.25
21547;BME280;41275;51.912;4.388;2023-03-15T23:43:17;101662.13;;;13.71;38.84
21547;BME280;41275;51.912;4.388;2023-03-15T23:48:39;101664.50;;;13.80;39.06
21547;BME280;41275;51.912;4.388;2023-03-15T23:54:02;101653.63;;;13.81;38.63
21547;BME280;41275;51.912;4.388;2023-03-15T23:59:23;101640.56;;;13.80;38.92
